sensor_id;sensor_type;location;lat;lon;timestamp;temperature;humidity
65470;DHT22;52067;50.710;14.492;2023-03-01T00:02:19;-4.35;83.96
65470;DHT22;52067;50.710;14.492;2023-03-01T00:04:44;-4.38;84.27
65470;DHT22;52067;50.710;14.492;2023-03-01T00:07:10;-4.52;85.08
65470;DHT22;52067;50.710;14.492;2023-03-01T00:09:36;-4.35;84.92
65470;DHT22;52067;50.710;14.492;2023-03-01T00:12:02;-4.41;84.23
65470;DHT22;52067;50.710;14.492;2023-03-01T00:14:27;-4.50;84.17
65470;DHT22;52067;50.710;14.492;2023-03-01T00:16:52;-4.73;86.68
65470;DHT22;52067;50.710;14.492;2023-03-01T00:19:20;-4.54;85.76
65470;DHT22;52067;50.710;14.492;2023-03-01T00:21:47;-4.76;85.79
65470;DHT22;52067;50.710;14.492;2023-03-01T00:24:12;-4.54;85.73
65470;DHT22;52067;50.710;14.492;2023-03-01T00:26:38;-4.47;84.77
65470;DHT22;52067;50.710;14.492;2023-03-01T00:29:03;-4.41;84.30
65470;DHT22;52067;50.710;14.492;2023-03-01T00:31:30;-4.44;84.22
65470;DHT22;52067;50.710;14.492;2023-03-01T00:34:01;-4.60;84.27
65470;DHT22;52067;50.710;14.492;2023-03-01T00:36:30;-4.58;83.93
65470;DHT22;52067;50.710;14.492;2023-03-01T00:38:56;-4.75;84.68
65470;DHT22;52067;50.710;14.492;2023-03-01T00:41:22;-4.69;84.83
65470;DHT22;52067;50.710;14.492;2023-03-01T00:43:49;-4.85;85.31
65470;DHT22;52067;50.710;14.492;2023-03-01T00:46:17;-4.93;85.59
65470;DHT22;52067;50.710;14.492;2023-03-01T00:48:43;-4.82;85.48
65470;DHT22;52067;50.710;14.492;2023-03-01T00:51:21;-4.79;85.72
65470;DHT22;52067;50.710;14.492;2023-03-01T00:53:49;-4.72;85.89
65470;DHT22;52067;50.710;14.492;2023-03-01T00:56:14;-4.68;85.45
65470;DHT22;52067;50.710;14.492;2023-03-01T00:58:40;-4.72;85.16
65470;DHT22;52067;50.710;14.492;2023-03-01T01:01:11;-5.14;85.47
65470;DHT22;52067;50.710;14.492;2023-03-01T01:04:04;-5.24;86.36
65470;DHT22;52067;50.710;14.492;2023-03-01T01:06:42;-5.09;85.82
65470;DHT22;52067;50.710;14.492;2023-03-01T01:09:09;-5.37;86.61
65470;DHT22;52067;50.710;14.492;2023-03-01T01:11:35;-5.16;86.35
65470;DHT22;52067;50.710;14.492;2023-03-01T01:14:02;-5.00;85.60
65470;DHT22;52067;50.710;14.492;2023-03-01T01:16:28;-5.00;85.22
65470;DHT22;52067;50.710;14.492;2023-03-01T01:18:54;-4.99;84.96
65470;DHT22;52067;50.710;14.492;2023-03-01T01:21:22;-4.99;84.95
65470;DHT22;52067;50.710;14.492;2023-03-01T01:23:48;-5.04;84.69
65470;DHT22;52067;50.710;14.492;2023-03-01T01:26:17;-5.13;84.97
65470;DHT22;52067;50.710;14.492;2023-03-01T01:28:42;-5.07;85.57
65470;DHT22;52067;50.710;14.492;2023-03-01T01:31:08;-5.19;85.49
65470;DHT22;52067;50.710;14.492;2023-03-01T01:33:34;-5.09;85.55
65470;DHT22;52067;50.710;14.492;2023-03-01T01:36:00;-5.06;86.46
65470;DHT22;52067;50.710;14.492;2023-03-01T01:38:25;-4.99;86.20
65470;DHT22;52067;50.710;14.492;2023-03-01T01:40:51;-5.13;85.83
65470;DHT22;52067;50.710;14.492;2023-03-01T01:43:20;-5.16;86.01
65470;DHT22;52067;50.710;14.492;2023-03-01T01:45:46;-5.13;86.00
65470;DHT22;52067;50.710;14.492;2023-03-01T01:48:15;-5.07;85.98
65470;DHT22;52067;50.710;14.492;2023-03-01T01:50:41;-5.17;86.43
65470;DHT22;52067;50.710;14.492;2023-03-01T01:53:12;-5.02;86.22
65470;DHT22;52067;50.710;14.492;2023-03-01T01:55:43;-5.03;86.63
65470;DHT22;52067;50.710;14.492;2023-03-01T01:58:11;-5.02;86.11
65470;DHT22;52067;50.710;14.492;2023-03-01T02:00:37;-5.33;86.59
65470;DHT22;52067;50.710;14.492;2023-03-01T02:03:08;-5.26;86.56
65470;DHT22;52067;50.710;14.492;2023-03-01T02:08:05;-5.27;86.56
65470;DHT22;52067;50.710;14.492;2023-03-01T02:10:33;-5.20;86.27
65470;DHT22;52067;50.710;14.492;2023-03-01T02:13:00;-5.17;86.08
65470;DHT22;52067;50.710;14.492;2023-03-01T02:15:25;-5.23;85.96
65470;DHT22;52067;50.710;14.492;2023-03-01T02:17:52;-5.16;86.32
65470;DHT22;52067;50.710;14.492;2023-03-01T02:20:26;-5.23;86.27
65470;DHT22;52067;50.710;14.492;2023-03-01T02:22:54;-5.26;86.63
65470;DHT22;52067;50.710;14.492;2023-03-01T02:25:54;-5.46;86.90
65470;DHT22;52067;50.710;14.492;2023-03-01T02:28:29;-5.82;88.08
65470;DHT22;52067;50.710;14.492;2023-03-01T02:30:54;-5.91;88.06
65470;DHT22;52067;50.710;14.492;2023-03-01T02:33:39;-5.68;87.46
65470;DHT22;52067;50.710;14.492;2023-03-01T02:36:08;-5.60;87.33
65470;DHT22;52067;50.710;14.492;2023-03-01T02:38:35;-5.51;86.71
65470;DHT22;52067;50.710;14.492;2023-03-01T02:41:02;-5.71;86.40
65470;DHT22;52067;50.710;14.492;2023-03-01T02:43:31;-5.68;86.87
65470;DHT22;52067;50.710;14.492;2023-03-01T02:46:05;-5.52;87.03
65470;DHT22;52067;50.710;14.492;2023-03-01T02:48:43;-5.55;87.20
65470;DHT22;52067;50.710;14.492;2023-03-01T02:56:24;-5.86;87.63
65470;DHT22;52067;50.710;14.492;2023-03-01T02:58:50;-5.96;87.68
65470;DHT22;52067;50.710;14.492;2023-03-01T03:01:17;-6.07;87.30
65470;DHT22;52067;50.710;14.492;2023-03-01T03:03:43;-6.06;87.77
65470;DHT22;52067;50.710;14.492;2023-03-01T03:06:09;-5.91;87.63
65470;DHT22;52067;50.710;14.492;2023-03-01T03:08:35;-5.74;87.27
65470;DHT22;52067;50.710;14.492;2023-03-01T03:11:00;-5.72;86.72
65470;DHT22;52067;50.710;14.492;2023-03-01T03:13:26;-5.64;86.88
65470;DHT22;52067;50.710;14.492;2023-03-01T03:15:56;-5.67;86.45
65470;DHT22;52067;50.710;14.492;2023-03-01T03:18:22;-5.68;86.25
65470;DHT22;52067;50.710;14.492;2023-03-01T03:20:52;-5.60;85.98
65470;DHT22;52067;50.710;14.492;2023-03-01T03:23:19;-5.67;85.50
65470;DHT22;52067;50.710;14.492;2023-03-01T03:25:47;-5.88;86.81
65470;DHT22;52067;50.710;14.492;2023-03-01T03:28:13;-5.82;86.45
65470;DHT22;52067;50.710;14.492;2023-03-01T03:30:40;-6.06;86.82
65470;DHT22;52067;50.710;14.492;2023-03-01T03:33:06;-6.03;87.06
65470;DHT22;52067;50.710;14.492;2023-03-01T03:35:37;-5.89;87.30
65470;DHT22;52067;50.710;14.492;2023-03-01T03:38:04;-5.89;86.63
65470;DHT22;52067;50.710;14.492;2023-03-01T03:40:34;-5.89;86.16
65470;DHT22;52067;50.710;14.492;2023-03-01T03:43:00;-5.77;86.12
65470;DHT22;52067;50.710;14.492;2023-03-01T03:45:26;-5.74;85.78
65470;DHT22;52067;50.710;14.492;2023-03-01T03:47:52;-5.85;85.77
65470;DHT22;52067;50.710;14.492;2023-03-01T03:50:18;-5.70;86.38
65470;DHT22;52067;50.710;14.492;2023-03-01T03:52:43;-5.72;86.92
65470;DHT22;52067;50.710;14.492;2023-03-01T03:55:10;-5.99;85.95
65470;DHT22;52067;50.710;14.492;2023-03-01T03:57:40;-6.23;87.19
65470;DHT22;52067;50.710;14.492;2023-03-01T04:00:10;-6.17;86.66
65470;DHT22;52067;50.710;14.492;2023-03-01T04:02:44;-6.61;87.77
65470;DHT22;52067;50.710;14.492;2023-03-01T04:05:11;-6.44;88.62
65470;DHT22;52067;50.710;14.492;2023-03-01T04:07:37;-6.23;88.03
65470;DHT22;52067;50.710;14.492;2023-03-01T04:10:05;-6.19;87.50
65470;DHT22;52067;50.710;14.492;2023-03-01T04:12:32;-6.20;87.13
65470;DHT22;52067;50.710;14.492;2023-03-01T04:14:59;-6.07;87.00
65470;DHT22;52067;50.710;14.492;2023-03-01T04:17:25;-6.24;87.40
65470;DHT22;52067;50.710;14.492;2023-03-01T04:19:50;-6.24;87.30
65470;DHT22;52067;50.710;14.492;2023-03-01T04:22:16;-6.12;86.61
65470;DHT22;52067;50.710;14.492;2023-03-01T04:24:42;-6.07;86.50
65470;DHT22;52067;50.710;14.492;2023-03-01T04:27:08;-6.29;87.33
65470;DHT22;52067;50.710;14.492;2023-03-01T04:29:34;-6.23;87.18
65470;DHT22;52067;50.710;14.492;2023-03-01T04:31:59;-6.24;87.28
65470;DHT22;52067;50.710;14.492;2023-03-01T04:34:25;-6.14;87.42
65470;DHT22;52067;50.710;14.492;2023-03-01T04:36:52;-6.14;86.78
65470;DHT22;52067;50.710;14.492;2023-03-01T04:39:17;-6.16;86.22
65470;DHT22;52067;50.710;14.492;2023-03-01T04:41:43;-6.22;86.19
65470;DHT22;52067;50.710;14.492;2023-03-01T04:44:09;-6.22;85.84
65470;DHT22;52067;50.710;14.492;2023-03-01T04:46:35;-6.17;85.90
65470;DHT22;52067;50.710;14.492;2023-03-01T04:49:00;-6.10;86.32
65470;DHT22;52067;50.710;14.492;2023-03-01T04:51:26;-6.14;85.99
65470;DHT22;52067;50.710;14.492;2023-03-01T04:53:51;-6.20;86.36
65470;DHT22;52067;50.710;14.492;2023-03-01T04:56:17;-6.10;86.39
65470;DHT22;52067;50.710;14.492;2023-03-01T04:58:45;-6.31;86.04
65470;DHT22;52067;50.710;14.492;2023-03-01T05:01:16;-6.17;86.24
65470;DHT22;52067;50.710;14.492;2023-03-01T05:03:44;-6.33;86.38
65470;DHT22;52067;50.710;14.492;2023-03-01T05:06:10;-6.22;86.41
65470;DHT22;52067;50.710;14.492;2023-03-01T05:08:37;-6.41;86.42
65470;DHT22;52067;50.710;14.492;2023-03-01T05:11:03;-6.33;86.33
65470;DHT22;52067;50.710;14.492;2023-03-01T05:13:29;-6.24;85.61
65470;DHT22;52067;50.710;14.492;2023-03-01T05:16:01;-6.40;85.39
65470;DHT22;52067;50.710;14.492;2023-03-01T05:18:28;-6.31;85.88
65470;DHT22;52067;50.710;14.492;2023-03-01T05:21:08;-6.24;86.23
65470;DHT22;52067;50.710;14.492;2023-03-01T05:23:34;-6.14;86.74
65470;DHT22;52067;50.710;14.492;2023-03-01T05:26:02;-6.23;86.52
65470;DHT22;52067;50.710;14.492;2023-03-01T05:28:29;-6.38;86.76
65470;DHT22;52067;50.710;14.492;2023-03-01T05:30:56;-6.62;86.82
65470;DHT22;52067;50.710;14.492;2023-03-01T05:33:21;-6.48;87.56
65470;DHT22;52067;50.710;14.492;2023-03-01T05:35:48;-6.44;86.84
65470;DHT22;52067;50.710;14.492;2023-03-01T05:38:15;-6.54;87.66
65470;DHT22;52067;50.710;14.492;2023-03-01T05:40:42;-6.62;87.29
65470;DHT22;52067;50.710;14.492;2023-03-01T05:43:09;-6.88;88.34
65470;DHT22;52067;50.710;14.492;2023-03-01T05:45:36;-6.74;88.80
65470;DHT22;52067;50.710;14.492;2023-03-01T05:48:03;-6.55;88.19
65470;DHT22;52067;50.710;14.492;2023-03-01T05:50:33;-6.50;87.48
65470;DHT22;52067;50.710;14.492;2023-03-01T05:53:01;-6.64;87.55
65470;DHT22;52067;50.710;14.492;2023-03-01T05:55:28;-6.64;88.00
65470;DHT22;52067;50.710;14.492;2023-03-01T05:57:53;-6.47;87.88
65470;DHT22;52067;50.710;14.492;2023-03-01T06:00:21;-6.48;88.13
65470;DHT22;52067;50.710;14.492;2023-03-01T06:02:49;-6.36;87.81
65470;DHT22;52067;50.710;14.492;2023-03-01T06:05:17;-6.24;87.44
65470;DHT22;52067;50.710;14.492;2023-03-01T06:07:42;-6.30;87.54
65470;DHT22;52067;50.710;14.492;2023-03-01T06:10:10;-6.37;87.07
65470;DHT22;52067;50.710;14.492;2023-03-01T06:12:37;-6.31;86.88
65470;DHT22;52067;50.710;14.492;2023-03-01T06:15:03;-6.07;86.58
65470;DHT22;52067;50.710;14.492;2023-03-01T06:17:30;-5.93;86.15
65470;DHT22;52067;50.710;14.492;2023-03-01T06:19:56;-5.81;85.58
65470;DHT22;52067;50.710;14.492;2023-03-01T06:22:22;-5.72;84.90
65470;DHT22;52067;50.710;14.492;2023-03-01T06:24:47;-5.64;84.87
65470;DHT22;52067;50.710;14.492;2023-03-01T06:27:13;-5.54;84.74
65470;DHT22;52067;50.710;14.492;2023-03-01T06:29:38;-5.35;85.18
65470;DHT22;52067;50.710;14.492;2023-03-01T06:32:03;-5.34;85.26
65470;DHT22;52067;50.710;14.492;2023-03-01T06:34:30;-5.61;85.53
65470;DHT22;52067;50.710;14.492;2023-03-01T06:36:55;-5.52;85.45
65470;DHT22;52067;50.710;14.492;2023-03-01T06:39:21;-5.35;85.85
65470;DHT22;52067;50.710;14.492;2023-03-01T06:41:46;-5.34;86.02
65470;DHT22;52067;50.710;14.492;2023-03-01T06:44:12;-5.17;87.21
65470;DHT22;52067;50.710;14.492;2023-03-01T06:46:38;-4.95;86.94
65470;DHT22;52067;50.710;14.492;2023-03-01T06:49:04;-4.99;87.37
65470;DHT22;52067;50.710;14.492;2023-03-01T06:51:35;-4.78;87.87
65470;DHT22;52067;50.710;14.492;2023-03-01T06:54:02;-4.55;87.39
65470;DHT22;52067;50.710;14.492;2023-03-01T06:56:27;-4.55;86.69
65470;DHT22;52067;50.710;14.492;2023-03-01T06:58:53;-4.57;86.56
65470;DHT22;52067;50.710;14.492;2023-03-01T07:01:18;-4.35;87.12
65470;DHT22;52067;50.710;14.492;2023-03-01T07:03:43;-4.06;86.48
65470;DHT22;52067;50.710;14.492;2023-03-01T07:06:09;-3.96;86.14
65470;DHT22;52067;50.710;14.492;2023-03-01T07:08:35;-3.89;85.88
65470;DHT22;52067;50.710;14.492;2023-03-01T07:11:00;-3.73;85.38
65470;DHT22;52067;50.710;14.492;2023-03-01T07:13:27;-3.47;84.50
65470;DHT22;52067;50.710;14.492;2023-03-01T07:15:53;-3.43;85.25
65470;DHT22;52067;50.710;14.492;2023-03-01T07:18:18;-3.30;84.74
65470;DHT22;52067;50.710;14.492;2023-03-01T07:20:43;-3.25;83.84
65470;DHT22;52067;50.710;14.492;2023-03-01T07:23:09;-2.96;83.73
65470;DHT22;52067;50.710;14.492;2023-03-01T07:25:35;-2.82;82.63
65470;DHT22;52067;50.710;14.492;2023-03-01T07:28:00;-2.66;82.04
65470;DHT22;52067;50.710;14.492;2023-03-01T07:30:26;-2.82;82.23
65470;DHT22;52067;50.710;14.492;2023-03-01T07:32:54;-2.77;83.37
65470;DHT22;52067;50.710;14.492;2023-03-01T07:35:19;-2.58;82.41
65470;DHT22;52067;50.710;14.492;2023-03-01T07:37:45;-2.76;83.45
65470;DHT22;52067;50.710;14.492;2023-03-01T07:40:11;-2.82;83.12
65470;DHT22;52067;50.710;14.492;2023-03-01T07:42:37;-2.90;83.59
65470;DHT22;52067;50.710;14.492;2023-03-01T07:45:03;-2.90;83.99
65470;DHT22;52067;50.710;14.492;2023-03-01T07:47:29;-2.79;84.84
65470;DHT22;52067;50.710;14.492;2023-03-01T07:49:54;-2.83;85.32
65470;DHT22;52067;50.710;14.492;2023-03-01T07:52:19;-2.68;83.84
65470;DHT22;52067;50.710;14.492;2023-03-01T07:54:45;-2.59;84.52
65470;DHT22;52067;50.710;14.492;2023-03-01T07:57:10;-2.41;83.70
65470;DHT22;52067;50.710;14.492;2023-03-01T07:59:36;-2.33;82.93
65470;DHT22;52067;50.710;14.492;2023-03-01T08:02:01;-2.10;84.57
65470;DHT22;52067;50.710;14.492;2023-03-01T08:04:27;-1.90;84.31
65470;DHT22;52067;50.710;14.492;2023-03-01T08:06:53;-1.73;82.45
65470;DHT22;52067;50.710;14.492;2023-03-01T08:09:19;-1.73;82.61
65470;DHT22;52067;50.710;14.492;2023-03-01T08:11:44;-1.72;80.81
65470;DHT22;52067;50.710;14.492;2023-03-01T08:14:09;-1.44;80.73
65470;DHT22;52067;50.710;14.492;2023-03-01T08:16:36;-1.48;79.55
65470;DHT22;52067;50.710;14.492;2023-03-01T08:19:09;-1.21;78.80
65470;DHT22;52067;50.710;14.492;2023-03-01T08:21:35;-1.17;77.49
65470;DHT22;52067;50.710;14.492;2023-03-01T08:24:05;-0.97;77.21
65470;DHT22;52067;50.710;14.492;2023-03-01T08:26:32;-1.09;77.09
65470;DHT22;52067;50.710;14.492;2023-03-01T08:28:57;-1.00;78.05
65470;DHT22;52067;50.710;14.492;2023-03-01T08:31:24;-0.76;77.29
65470;DHT22;52067;50.710;14.492;2023-03-01T08:33:51;-0.90;77.96
65470;DHT22;52067;50.710;14.492;2023-03-01T08:36:21;-0.62;77.14
65470;DHT22;52067;50.710;14.492;2023-03-01T08:38:47;-0.57;77.16
65470;DHT22;52067;50.710;14.492;2023-03-01T08:41:13;-0.40;75.94
65470;DHT22;52067;50.710;14.492;2023-03-01T08:43:39;-0.17;74.87
65470;DHT22;52067;50.710;14.492;2023-03-01T08:46:05;-0.14;75.05
65470;DHT22;52067;50.710;14.492;2023-03-01T08:48:30;-0.29;76.90
65470;DHT22;52067;50.710;14.492;2023-03-01T08:50:56;-0.12;76.26
65470;DHT22;52067;50.710;14.492;2023-03-01T08:53:21;0.06;76.76
65470;DHT22;52067;50.710;14.492;2023-03-01T08:55:47;0.06;74.44
65470;DHT22;52067;50.710;14.492;2023-03-01T08:58:12;-0.21;75.33
65470;DHT22;52067;50.710;14.492;2023-03-01T09:00:38;-0.07;76.94
65470;DHT22;52067;50.710;14.492;2023-03-01T09:03:03;0.27;75.74
65470;DHT22;52067;50.710;14.492;2023-03-01T09:05:32;0.64;75.46
65470;DHT22;52067;50.710;14.492;2023-03-01T09:07:58;0.79;75.30
65470;DHT22;52067;50.710;14.492;2023-03-01T09:10:23;0.81;74.10
65470;DHT22;52067;50.710;14.492;2023-03-01T09:12:48;0.81;72.78
65470;DHT22;52067;50.710;14.492;2023-03-01T09:15:14;0.98;73.13
65470;DHT22;52067;50.710;14.492;2023-03-01T09:17:39;1.09;70.10
65470;DHT22;52067;50.710;14.492;2023-03-01T09:20:05;1.25;69.05
65470;DHT22;52067;50.710;14.492;2023-03-01T09:22:33;1.67;68.31
65470;DHT22;52067;50.710;14.492;2023-03-01T09:24:59;1.85;66.03
65470;DHT22;52067;50.710;14.492;2023-03-01T09:27:24;1.99;65.43
65470;DHT22;52067;50.710;14.492;2023-03-01T09:29:50;1.66;66.41
65470;DHT22;52067;50.710;14.492;2023-03-01T09:32:15;2.01;67.25
65470;DHT22;52067;50.710;14.492;2023-03-01T09:34:41;2.47;64.71
65470;DHT22;52067;50.710;14.492;2023-03-01T09:37:26;3.66;62.12
65470;DHT22;52067;50.710;14.492;2023-03-01T09:39:51;6.58;54.43
65470;DHT22;52067;50.710;14.492;2023-03-01T09:42:17;8.32;47.90
65470;DHT22;52067;50.710;14.492;2023-03-01T09:44:52;8.21;46.62
65470;DHT22;52067;50.710;14.492;2023-03-01T09:47:40;6.24;48.77
65470;DHT22;52067;50.710;14.492;2023-03-01T09:50:10;9.00;47.65
65470;DHT22;52067;50.710;14.492;2023-03-01T09:55:46;11.13;39.61
65470;DHT22;52067;50.710;14.492;2023-03-01T10:01:35;12.75;35.67
65470;DHT22;52067;50.710;14.492;2023-03-01T10:09:45;12.12;38.88
65470;DHT22;52067;50.710;14.492;2023-03-01T10:12:18;12.26;35.64
65470;DHT22;52067;50.710;14.492;2023-03-01T10:17:43;10.42;40.02
65470;DHT22;52067;50.710;14.492;2023-03-01T10:20:15;12.19;36.03
65470;DHT22;52067;50.710;14.492;2023-03-01T10:22:41;11.82;37.67
65470;DHT22;52067;50.710;14.492;2023-03-01T10:25:13;13.49;34.57
65470;DHT22;52067;50.710;14.492;2023-03-01T10:27:53;8.97;45.95
65470;DHT22;52067;50.710;14.492;2023-03-01T10:30:35;9.38;41.38
65470;DHT22;52067;50.710;14.492;2023-03-01T10:33:12;11.32;36.40
65470;DHT22;52067;50.710;14.492;2023-03-01T10:35:38;10.18;37.23
65470;DHT22;52067;50.710;14.492;2023-03-01T10:38:13;10.88;38.07
65470;DHT22;52067;50.710;14.492;2023-03-01T10:40:52;9.04;40.65
65470;DHT22;52067;50.710;14.492;2023-03-01T10:43:19;10.63;37.69
65470;DHT22;52067;50.710;14.492;2023-03-01T10:45:44;10.05;41.93
65470;DHT22;52067;50.710;14.492;2023-03-01T10:48:20;11.41;36.84
65470;DHT22;52067;50.710;14.492;2023-03-01T10:50:50;9.73;39.48
65470;DHT22;52067;50.710;14.492;2023-03-01T10:53:35;10.61;36.79
65470;DHT22;52067;50.710;14.492;2023-03-01T10:56:05;13.04;34.68
65470;DHT22;52067;50.710;14.492;2023-03-01T10:58:32;15.07;29.97
65470;DHT22;52067;50.710;14.492;2023-03-01T11:01:01;14.35;31.47
65470;DHT22;52067;50.710;14.492;2023-03-01T11:03:37;12.50;34.52
65470;DHT22;52067;50.710;14.492;2023-03-01T11:08:45;14.58;32.52
65470;DHT22;52067;50.710;14.492;2023-03-01T11:14:04;15.68;29.96
65470;DHT22;52067;50.710;14.492;2023-03-01T11:16:36;13.46;34.09
65470;DHT22;52067;50.710;14.492;2023-03-01T11:21:35;12.27;35.15
65470;DHT22;52067;50.710;14.492;2023-03-01T11:24:03;12.06;33.43
65470;DHT22;52067;50.710;14.492;2023-03-01T11:26:31;12.06;36.11
65470;DHT22;52067;50.710;14.492;2023-03-01T11:29:05;12.74;33.42
65470;DHT22;52067;50.710;14.492;2023-03-01T11:31:32;13.49;32.14
65470;DHT22;52067;50.710;14.492;2023-03-01T11:34:19;14.17;30.28
65470;DHT22;52067;50.710;14.492;2023-03-01T11:36:55;14.52;31.85
65470;DHT22;52067;50.710;14.492;2023-03-01T11:39:28;11.65;37.72
65470;DHT22;52067;50.710;14.492;2023-03-01T11:42:12;11.79;34.51
65470;DHT22;52067;50.710;14.492;2023-03-01T11:44:41;13.02;32.96
65470;DHT22;52067;50.710;14.492;2023-03-01T11:47:27;11.27;36.44
65470;DHT22;52067;50.710;14.492;2023-03-01T11:55:24;13.42;32.31
65470;DHT22;52067;50.710;14.492;2023-03-01T12:01:07;13.46;32.89
65470;DHT22;52067;50.710;14.492;2023-03-01T12:06:36;13.29;34.08
65470;DHT22;52067;50.710;14.492;2023-03-01T12:20:19;12.27;32.71
65470;DHT22;52067;50.710;14.492;2023-03-01T12:23:38;11.55;34.46
65470;DHT22;52067;50.710;14.492;2023-03-01T12:26:26;11.37;35.46
65470;DHT22;52067;50.710;14.492;2023-03-01T12:50:42;11.77;35.18
65470;DHT22;52067;50.710;14.492;2023-03-01T12:53:25;14.12;33.14
65470;DHT22;52067;50.710;14.492;2023-03-01T12:56:02;13.62;34.06
65470;DHT22;52067;50.710;14.492;2023-03-01T12:58:39;13.63;33.59
65470;DHT22;52067;50.710;14.492;2023-03-01T13:31:01;13.36;34.30
65470;DHT22;52067;50.710;14.492;2023-03-01T13:35:58;13.01;34.56
65470;DHT22;52067;50.710;14.492;2023-03-01T13:38:41;12.88;34.91
65470;DHT22;52067;50.710;14.492;2023-03-01T13:41:10;14.05;32.68
65470;DHT22;52067;50.710;14.492;2023-03-01T13:43:38;12.43;31.96
65470;DHT22;52067;50.710;14.492;2023-03-01T13:46:24;12.22;32.97
65470;DHT22;52067;50.710;14.492;2023-03-01T13:48:55;11.07;36.10
65470;DHT22;52067;50.710;14.492;2023-03-01T13:51:25;12.02;34.32
65470;DHT22;52067;50.710;14.492;2023-03-01T13:53:51;11.27;35.83
65470;DHT22;52067;50.710;14.492;2023-03-01T13:56:21;11.67;34.90
65470;DHT22;52067;50.710;14.492;2023-03-01T13:58:51;11.45;34.43
65470;DHT22;52067;50.710;14.492;2023-03-01T14:03:51;10.92;37.52
65470;DHT22;52067;50.710;14.492;2023-03-01T14:06:22;10.35;38.12
65470;DHT22;52067;50.710;14.492;2023-03-01T14:08:50;11.85;35.10
65470;DHT22;52067;50.710;14.492;2023-03-01T14:20:19;10.01;37.65
65470;DHT22;52067;50.710;14.492;2023-03-01T14:22:46;10.31;39.10
65470;DHT22;52067;50.710;14.492;2023-03-01T14:30:42;8.94;44.60
65470;DHT22;52067;50.710;14.492;2023-03-01T14:33:26;8.71;43.79
65470;DHT22;52067;50.710;14.492;2023-03-01T14:35:54;10.76;39.97
65470;DHT22;52067;50.710;14.492;2023-03-01T14:38:21;11.50;36.44
65470;DHT22;52067;50.710;14.492;2023-03-01T14:40:51;10.86;40.03
65470;DHT22;52067;50.710;14.492;2023-03-01T14:43:22;11.62;37.56
65470;DHT22;52067;50.710;14.492;2023-03-01T14:45:50;12.53;36.14
65470;DHT22;52067;50.710;14.492;2023-03-01T14:48:16;12.19;36.04
65470;DHT22;52067;50.710;14.492;2023-03-01T14:50:43;11.48;37.15
65470;DHT22;52067;50.710;14.492;2023-03-01T14:53:22;11.11;37.68
65470;DHT22;52067;50.710;14.492;2023-03-01T14:55:56;10.96;38.61
65470;DHT22;52067;50.710;14.492;2023-03-01T14:58:25;10.86;39.03
65470;DHT22;52067;50.710;14.492;2023-03-01T15:00:54;11.62;38.65
65470;DHT22;52067;50.710;14.492;2023-03-01T15:03:26;11.51;38.55
65470;DHT22;52067;50.710;14.492;2023-03-01T15:05:53;11.92;38.20
65470;DHT22;52067;50.710;14.492;2023-03-01T15:08:24;9.26;41.67
65470;DHT22;52067;50.710;14.492;2023-03-01T15:13:32;10.15;40.22
65470;DHT22;52067;50.710;14.492;2023-03-01T15:18:31;8.19;44.83
65470;DHT22;52067;50.710;14.492;2023-03-01T15:21:21;8.08;44.83
65470;DHT22;52067;50.710;14.492;2023-03-01T15:26:45;7.09;47.13
65470;DHT22;52067;50.710;14.492;2023-03-01T15:29:20;6.72;47.93
65470;DHT22;52067;50.710;14.492;2023-03-01T15:31:59;6.05;50.47
65470;DHT22;52067;50.710;14.492;2023-03-01T15:34:30;6.36;50.43
65470;DHT22;52067;50.710;14.492;2023-03-01T15:36:58;6.81;48.54
65470;DHT22;52067;50.710;14.492;2023-03-01T15:42:35;6.38;48.69
65470;DHT22;52067;50.710;14.492;2023-03-01T15:48:13;6.23;49.88
65470;DHT22;52067;50.710;14.492;2023-03-01T15:50:40;6.11;50.90
65470;DHT22;52067;50.710;14.492;2023-03-01T15:53:13;6.02;50.47
65470;DHT22;52067;50.710;14.492;2023-03-01T15:55:41;6.41;49.73
65470;DHT22;52067;50.710;14.492;2023-03-01T15:58:12;5.73;50.98
65470;DHT22;52067;50.710;14.492;2023-03-01T16:00:37;6.27;49.79
65470;DHT22;52067;50.710;14.492;2023-03-01T16:03:04;5.75;50.43
65470;DHT22;52067;50.710;14.492;2023-03-01T16:05:34;6.21;49.06
65470;DHT22;52067;50.710;14.492;2023-03-01T16:08:02;6.07;49.39
65470;DHT22;52067;50.710;14.492;2023-03-01T16:10:27;5.99;49.92
65470;DHT22;52067;50.710;14.492;2023-03-01T16:12:53;6.26;49.75
65470;DHT22;52067;50.710;14.492;2023-03-01T16:15:22;5.68;51.72
65470;DHT22;52067;50.710;14.492;2023-03-01T16:17:49;5.27;52.99
65470;DHT22;52067;50.710;14.492;2023-03-01T16:20:15;4.68;54.67
65470;DHT22;52067;50.710;14.492;2023-03-01T16:22:42;4.77;55.02
65470;DHT22;52067;50.710;14.492;2023-03-01T16:25:09;4.62;55.08
65470;DHT22;52067;50.710;14.492;2023-03-01T16:27:35;4.52;55.95
65470;DHT22;52067;50.710;14.492;2023-03-01T16:30:00;4.59;54.74
65470;DHT22;52067;50.710;14.492;2023-03-01T16:32:26;4.14;56.22
65470;DHT22;52067;50.710;14.492;2023-03-01T16:34:51;4.14;56.94
65470;DHT22;52067;50.710;14.492;2023-03-01T16:37:16;4.25;56.13
65470;DHT22;52067;50.710;14.492;2023-03-01T16:39:44;4.32;56.79
65470;DHT22;52067;50.710;14.492;2023-03-01T16:42:09;4.10;57.27
65470;DHT22;52067;50.710;14.492;2023-03-01T16:44:35;3.97;58.49
65470;DHT22;52067;50.710;14.492;2023-03-01T16:47:00;3.97;57.70
65470;DHT22;52067;50.710;14.492;2023-03-01T16:49:25;3.58;59.61
65470;DHT22;52067;50.710;14.492;2023-03-01T16:51:53;3.62;59.08
65470;DHT22;52067;50.710;14.492;2023-03-01T16:54:18;3.19;60.87
65470;DHT22;52067;50.710;14.492;2023-03-01T16:56:44;3.52;59.26
65470;DHT22;52067;50.710;14.492;2023-03-01T16:59:09;3.63;59.13
65470;DHT22;52067;50.710;14.492;2023-03-01T17:01:35;3.82;57.88
65470;DHT22;52067;50.710;14.492;2023-03-01T17:04:04;3.63;61.70
65470;DHT22;52067;50.710;14.492;2023-03-01T17:06:30;3.42;60.62
65470;DHT22;52067;50.710;14.492;2023-03-01T17:08:56;3.21;61.21
65470;DHT22;52067;50.710;14.492;2023-03-01T17:11:22;3.11;60.81
65470;DHT22;52067;50.710;14.492;2023-03-01T17:13:47;3.08;61.22
65470;DHT22;52067;50.710;14.492;2023-03-01T17:16:15;3.01;61.42
65470;DHT22;52067;50.710;14.492;2023-03-01T17:18:41;2.21;63.91
65470;DHT22;52067;50.710;14.492;2023-03-01T17:21:07;2.15;63.63
65470;DHT22;52067;50.710;14.492;2023-03-01T17:23:34;2.09;64.57
65470;DHT22;52067;50.710;14.492;2023-03-01T17:26:00;1.97;65.16
65470;DHT22;52067;50.710;14.492;2023-03-01T17:28:28;1.82;66.28
65470;DHT22;52067;50.710;14.492;2023-03-01T17:30:54;1.68;68.14
65470;DHT22;52067;50.710;14.492;2023-03-01T17:33:20;1.18;68.96
65470;DHT22;52067;50.710;14.492;2023-03-01T17:35:46;1.28;69.46
65470;DHT22;52067;50.710;14.492;2023-03-01T17:38:15;1.42;70.08
65470;DHT22;52067;50.710;14.492;2023-03-01T17:40:41;1.46;69.89
65470;DHT22;52067;50.710;14.492;2023-03-01T17:43:08;1.18;71.39
65470;DHT22;52067;50.710;14.492;2023-03-01T17:45:36;1.09;72.45
65470;DHT22;52067;50.710;14.492;2023-03-01T17:48:02;1.25;71.45